Nearby METAR Reports

 

KALB - Albany, New York, USA
Distance from station: E 47mi, 75km
Updated: Sat, 25-Jan-2020 5:51am EST
Overcast
Overcast
 Wind from calm
Wind: Calm
Temperature: 23°F , -5°C
Dew Point: 16°F , -9°C
Humidity: 74%
Barometer: 30.22 inHg , 1023.4 hPa
Clouds: Overcast
Visibility: 10 miles , 16 km
Cloud details: Mostly cloudy 17000 ft
Overcast 25000 ft
2020/01/25 10:51 KALB 251051Z 00000KT 10SM BKN170 OVC250 M05/M09 A3022 RMK AO2 SLP236 T10501089
KSLK - Saranac Lake, New York, USA
Distance from station: N 110mi, 177km
Updated: Sat, 25-Jan-2020 5:51am EST
Clear
Clear
 Wind from N
Wind: N 5 mph , 7 km/h
Temperature: 18°F , -8°C
Wind Chill: 11°F , -12°C
Dew Point: 12°F , -11°C
Humidity: 79%
Barometer: 30.09 inHg , 1019 hPa
Clouds: Clear
Visibility: 10 miles , 16 km
2020/01/25 10:51 KSLK 251051Z AUTO 01004KT 10SM CLR M08/M11 A3009 RMK AO2 SLP215 T10831106
 
KSYR - Syracuse, New York, USA
Distance from station: W 73mi, 117km
Updated: Sat, 25-Jan-2020 5:54am EST
Overcast
Overcast
 Wind from E
Wind: E 14 mph , 22 km/h, Gust: 25 mph , 41 km/h
Temperature: 37°F , 3°C
Wind Chill: 28°F , -2°C
Dew Point: 25°F , -4°C
Humidity: 60%
Barometer: 30.07 inHg , 1018.3 hPa
Clouds: Overcast
Visibility: 10 miles , 16 km
Cloud details: Partly cloudy 8500 ft
Mostly cloudy 11000 ft
Overcast 15000 ft
2020/01/25 10:54 KSYR 251054Z 08012G22KT 10SM SCT085 BKN110 OVC150 03/M04 A3007 RMK AO2 SLP182 T00281039
KBGM - Binghamton, New York, USA
Distance from station: SW 78mi, 126km
Updated: Sat, 25-Jan-2020 5:53am EST
Light rain, Overcast
Light rain, Overcast
 Wind from ESE
Wind: ESE 23 mph , 37 km/h, Gust: 30 mph , 48 km/h
Temperature: 34°F , 1°C
Wind Chill: 22°F , -6°C
Dew Point: 21°F , -6°C
Humidity: 60%
Barometer: 29.96 inHg , 1014.6 hPa
Summary: Light rain
Clouds: Overcast
Visibility: 10 miles , 16 km
Cloud details: Few Clouds 5000 ft
Mostly cloudy 6000 ft
Overcast 9000 ft
2020/01/25 10:53 KBGM 251053Z 11020G26KT 10SM -RA FEW050 BKN060 OVC090 01/M06 A2996 RMK AO2 PK WND 11026/1053 RAB46 PRESFR SLP158 P0000 T00111056 $
 
KRME - Rome, New York, USA
Distance from station: WNW 43mi, 69km
Updated: Sat, 25-Jan-2020 5:53am EST
Clear
Clear
 Wind from E
Wind: E 14 mph , 22 km/h, Gust: 23 mph , 37 km/h
Temperature: 36°F , 2°C
Wind Chill: 27°F , -3°C
Dew Point: 27°F , -3°C
Humidity: 70%
Barometer: 30.12 inHg , 1020 hPa
Clouds: Clear
Visibility: 10 miles , 16 km
2020/01/25 10:53 KRME 251053Z AUTO 09012G20KT 10SM CLR 02/M03 A3012 RMK AO2 SLP203 T00221028
KJFK - New York, New York, USA
Distance from station: SSE 159mi, 256km
Updated: Sat, 25-Jan-2020 5:51am EST
Overcast
Overcast
 Wind from ENE
Wind: ENE 15 mph , 24 km/h
Temperature: 39°F , 4°C
Wind Chill: 31°F , -1°C
Dew Point: 37°F , 3°C
Humidity: 93%
Barometer: 30.13 inHg , 1020.3 hPa
Clouds: Overcast
Visibility: 10 miles , 16 km
Cloud details: Overcast 1000 ft
2020/01/25 10:51 KJFK 251051Z 06013KT 10SM OVC010 04/03 A3013 RMK AO2 SLP202 T00440033
 
KROC - Rochester, New York, USA
Distance from station: W 150mi, 242km
Updated: Sat, 25-Jan-2020 5:54am EST
Light rain, Overcast
Light rain, Overcast
 Wind from SE
Wind: SE 13 mph , 20 km/h
Temperature: 37°F , 3°C
Wind Chill: 29°F , -2°C
Dew Point: 28°F , -2°C
Humidity: 70%
Barometer: 29.98 inHg , 1015.2 hPa
Summary: Light rain
Clouds: Overcast
Visibility: 10 miles , 16 km
Cloud details: Overcast 5000 ft
2020/01/25 10:54 KROC 251054Z 13011KT 10SM -RA OVC050 03/M02 A2998 RMK AO2 SLP158 P0003 T00331022
KART - Watertown, New York, USA
Distance from station: NNW 103mi, 166km
Updated: Sat, 25-Jan-2020 5:56am EST
Clear
Clear
 Wind from E
Wind: E 7 mph , 11 km/h
Temperature: 43°F , 6°C
Wind Chill: 39°F , 4°C
Dew Point: 19°F , -7°C
Humidity: 39%
Barometer: 30.05 inHg , 1017.6 hPa
Clouds: Clear
Visibility: 10 miles , 16 km
2020/01/25 10:56 KART 251056Z AUTO 10006KT 10SM CLR 06/M07 A3005 RMK AO2 SLP178 T00611072
 
KELM - Elmira-Corning, New York, USA
Distance from station: SSW 121mi, 195km
Updated: Sat, 25-Jan-2020 5:53am EST
Light rain, Overcast
Light rain, Overcast
 Wind from varies
Wind: varies 3 mph , 6 km/h
Temperature: 37°F , 3°C
Dew Point: 27°F , -3°C
Humidity: 65%
Barometer: 29.99 inHg , 1015.6 hPa
Summary: Light rain
Clouds: Overcast
Visibility: 10 miles , 16 km
Cloud details: Overcast 5500 ft
2020/01/25 10:53 KELM 251053Z VRB03KT 10SM -RA OVC055 03/M03 A2999 RMK AO2 SLP161 P0003 T00281033
KJHW - Jamestown, New York, USA
Distance from station: SW 238mi, 383km
Updated: Sat, 25-Jan-2020 6:05am EST
Overcast
Overcast
 Wind from SSE
Wind: SSE 10 mph , 17 km/h
Temperature: 36°F , 2°C
Wind Chill: 29°F , -2°C
Dew Point: 34°F , 1°C
Humidity: 93%
Barometer: 29.83 inHg , 1010.2 hPa
Clouds: Overcast
Visibility: 10 miles , 16 km
Cloud details: Overcast 900 ft
2020/01/25 11:05 KJHW 251105Z AUTO 15009KT 10SM OVC009 02/01 A2983 RMK AO2 UPE02 CIG 007V012 P0000 FZRANO
 
KMSS - Massena, New York, USA
Distance from station: N 141mi, 232km
Updated: Sat, 25-Jan-2020 5:53am EST
Clear
Clear
 Wind from ENE
Wind: ENE 7 mph , 11 km/h
Temperature: 25°F , -4°C
Wind Chill: 17°F , -8°C
Dew Point: 21°F , -6°C
Humidity: 86%
Barometer: 30.16 inHg , 1021.3 hPa
Clouds: Clear
Visibility: 10 miles , 16 km
2020/01/25 10:53 KMSS 251053Z AUTO 06006KT 10SM CLR M04/M06 A3016 RMK AO2 SLP221 T10391061
KBUF - Buffalo, New York, USA
Distance from station: W 204mi, 328km
Updated: Sat, 25-Jan-2020 5:54am EST
Overcast
Overcast
 Wind from ESE
Wind: ESE 7 mph , 11 km/h
Temperature: 39°F , 4°C
Wind Chill: 34°F , 1°C
Dew Point: 30°F , -1°C
Humidity: 70%
Barometer: 29.87 inHg , 1011.5 hPa
Clouds: Overcast
Visibility: 10 miles , 16 km
Cloud details: Partly cloudy 5000 ft
Mostly cloudy 6000 ft
Overcast 10000 ft
2020/01/25 10:54 KBUF 251054Z 12006KT 10SM SCT050 BKN060 OVC100 04/M01 A2987 RMK AO2 SLP119 T00441011